This is the latest recevied weather packets stored in our database for station/object K3SV. If no packets are shown the sender has not sent any weather packets the latest 10 day(s).
| Time | Temp. | Humidity | Pressure | Rain* | Wind** | Luminosity | Snow |
|---|---|---|---|---|---|---|---|
| 1777584135 | 29.44° C | 55% | 1010.5 hPa | 0 mm | - | 383 W/m² | - |
| 1777583834 | 29.44° C | 56% | 1010.6 hPa | 0 mm | - | 199 W/m² | - |
| 1777583530 | 30° C | 53% | 1010.5 hPa | 0 mm | - | 427 W/m² | - |
| 1777583229 | 31.11° C | 50% | 1010.5 hPa | 0 mm | - | 332 W/m² | - |
| 1777582924 | 30.56° C | 51% | 1010.5 hPa | 0 mm | - | 510 W/m² | - |
| 1777582622 | 30° C | 53% | 1010.5 hPa | 0 mm | - | 564 W/m² | - |
| 1777582317 | 29.44° C | 54% | 1010.4 hPa | 0 mm | - | 454 W/m² | - |
| 1777582015 | 28.89° C | 54% | 1010.7 hPa | 0 mm | - | 335 W/m² | - |
| 1777581710 | 28.89° C | 55% | 1011.1 hPa | 0 mm | - | 239 W/m² | - |
| 1777581409 | 28.89° C | 57% | 1010.5 hPa | 0 mm | - | 245 W/m² | - |
| 1777581104 | 30° C | 53% | 1010.6 hPa | 0 mm | - | 257 W/m² | - |
| 1777580803 | 30° C | 52% | 1010.6 hPa | 0 mm | - | 335 W/m² | - |
| 1777580500 | 30.56° C | 51% | 1010.8 hPa | 0 mm | - | 337 W/m² | - |
| 1777580195 | 30° C | 52% | 1010.7 hPa | 0 mm | - | 502 W/m² | - |
| 1777579892 | 31.11° C | 48% | 1010.6 hPa | 0 mm | - | 282 W/m² | - |
| 1777579591 | 30.56° C | 49% | 1010.8 hPa | 0 mm | - | 664 W/m² | - |
| 1777579285 | 31.67° C | 48% | 1010.6 hPa | 0 mm | - | 597 W/m² | - |
| 1777578982 | 31.67° C | 47% | 1010.9 hPa | 0 mm | - | 628 W/m² | - |
| 1777578677 | 30.56° C | 48% | 1011 hPa | 0 mm | - | 627 W/m² | - |
| 1777578375 | 31.11° C | 47% | 1011.1 hPa | 0 mm | - | 644 W/m² | - |
| 1777578072 | 31.11° C | 47% | 1010.8 hPa | 0 mm | - | 636 W/m² | - |
| 1777577768 | 30° C | 50% | 1010.9 hPa | 0 mm | - | 629 W/m² | - |
| 1777577464 | 31.11° C | 48% | 1010.9 hPa | 0 mm | - | 667 W/m² | - |
| 1777577161 | 31.11° C | 47% | 1011.1 hPa | 0 mm | - | 694 W/m² | - |
| 1777576857 | 31.67° C | 48% | 1010.9 hPa | 0 mm | - | 663 W/m² | - |
* Rain latest hour (hover to see other rain measurements)
** Current wind speed in m/s (hover to see current wind gust speed)